Airfield :
LOGIN :

Register | Disclaimer

   EN    FR    IT 

 










Legend :    VFR   Marginal VFR   IFR   Intensive IFR   Very Intensive IFR
Visi :
Ceiling :
>= 8 km
>= 3000ft
5 to 8 km
1000 to 3000 ft
1500m to 5 km
500 to 1000 ft
800 to 1500m
200 to 500 ft
< 800m
< 200 ft
Symbols :   Thunderstorms  Fog  Heavy snow  Heavy precipitations  Wind > 20 kt
SIGMETs :     Misc.  Thunderstorms  Icing  Turbulence  Mountain Waves  Volcanic Ashes






- Airport Elevation : 268 ft
- IATA code : BFS


EGAA - Belfast Aldergrove

CURRENT METAR :
  • 221450Z 12007KT 070V160 CAVOK 14/03 Q1026

EXPIRED METARs :
  • 221420Z 14008KT 100V170 CAVOK 14/03 Q1026
  • 221350Z 14006KT 110V200 CAVOK 14/04 Q1026
  • 221320Z 13006KT 080V190 CAVOK 14/04 Q1026
  • 221250Z 13005KT 080V180 9999 FEW033 14/05 Q1026
  • 221220Z 16007KT 130V220 9999 SCT034 14/05 Q1026
  • 221150Z 14005KT 090V230 9999 FEW032 13/05 Q1026

TAF TAF EGAA
Valid from the 22 at 12:00 until the 23 at 12:00 UTC


221056Z 2212/2312 14007KT 9999 BKN040
BECMG 2212/2216 CAVOK



MET'MAP, your aeronautical weather chart ! - Copyright ORBIFLY December 2007 - Disclaimer

ORBIFLY MET'MAP TEAM :

Programming & Development : Alexandra Zaïnal
Concept & original design : Baudouin d'Aumeries
Assistance for programming : Marc-Olivier Méhu
Technical & hardware support : Manuel Goepfert

Contact : metmap@orbifly.com




SOURCES & CREDITS :

   NOAA